Time;durP1;ratioP1;P1;durP2;ratioP2;P2;SDS_P1;SDS_P2;PMS_P1;PMS_P2;Temp;Humidity;BMP_temperature;BMP_pressure;BME280_temperature;BME280_humidity;BME280_pressure;Samples;Min_cycle;Max_cycle;Signal;HPM_P1;HPM_P2
2023/09/19 00:01:58;;;;;;;8.48;2.95;;;17.90;66.20;;;;;;5051337;28;20567;-69
2023/09/19 00:04:28;;;;;;;9.55;2.38;;;17.90;66.20;;;;;;5050481;28;20051;-68
2023/09/19 00:06:54;;;;;;;10.85;3.40;;;17.90;66.40;;;;;;5054550;28;20028;-70
2023/09/19 00:09:20;;;;;;;10.63;2.40;;;17.80;66.20;;;;;;5056927;28;20032;-71
2023/09/19 00:11:49;;;;;;;11.18;3.03;;;17.80;66.30;;;;;;5049278;28;20055;-69
2023/09/19 00:14:15;;;;;;;9.70;2.58;;;17.80;66.50;;;;;;5048811;28;20028;-69
2023/09/19 00:16:41;;;;;;;8.98;2.65;;;17.80;66.60;;;;;;5052098;28;20032;-71
2023/09/19 00:19:08;;;;;;;9.73;2.80;;;17.70;66.50;;;;;;5049886;28;20032;-69
2023/09/19 00:21:34;;;;;;;11.85;2.47;;;17.70;66.60;;;;;;5056773;28;20040;-68
2023/09/19 00:24:00;;;;;;;8.25;2.10;;;17.70;66.70;;;;;;5055770;28;20024;-69
2023/09/19 00:26:30;;;;;;;12.30;3.80;;;17.70;66.90;;;;;;5056613;28;20063;-69
2023/09/19 00:28:57;;;;;;;11.50;3.38;;;17.60;66.90;;;;;;5050763;28;20049;-70
2023/09/19 00:31:23;;;;;;;11.25;2.70;;;17.60;67.00;;;;;;5056289;28;20038;-70
2023/09/19 00:33:49;;;;;;;6.57;2.63;;;17.60;67.20;;;;;;5058672;28;20036;-70
2023/09/19 00:36:15;;;;;;;9.18;2.42;;;17.50;67.20;;;;;;5056589;28;20097;-69
2023/09/19 00:38:41;;;;;;;11.82;3.13;;;17.50;67.30;;;;;;5058685;28;20048;-70
2023/09/19 00:41:10;;;;;;;10.30;3.05;;;17.60;67.70;;;;;;5038404;28;20111;-68
2023/09/19 00:43:36;;;;;;;11.05;3.20;;;17.50;67.60;;;;;;5057552;28;20191;-69
2023/09/19 00:46:04;;;;;;;7.35;2.55;;;17.50;67.80;;;;;;5057697;28;20028;-68
2023/09/19 00:48:31;;;;;;;9.65;2.90;;;17.40;67.70;;;;;;5052066;28;20044;-69
2023/09/19 00:51:02;;;;;;;8.82;2.63;;;17.40;68.30;;;;;;5056585;28;20513;-68
2023/09/19 00:53:28;;;;;;;8.30;2.50;;;17.40;68.00;;;;;;5052928;28;20381;-70
2023/09/19 00:55:56;;;;;;;8.77;3.00;;;17.30;68.00;;;;;;5054718;28;20028;-67
2023/09/19 00:58:22;;;;;;;5.88;2.35;;;17.30;68.10;;;;;;5055968;28;20033;-69
2023/09/19 01:00:49;;;;;;;7.82;2.65;;;17.30;68.20;;;;;;5056487;28;20437;-69
2023/09/19 01:03:18;;;;;;;11.05;2.75;;;17.30;68.30;;;;;;5053302;28;20460;-68
2023/09/19 01:05:45;;;;;;;7.13;2.85;;;17.30;68.40;;;;;;5053595;28;20143;-68
2023/09/19 01:08:11;;;;;;;11.27;2.95;;;17.30;68.60;;;;;;5058157;28;20033;-69
2023/09/19 01:10:51;;;;;;;8.10;2.83;;;17.20;68.50;;;;;;5051877;28;20095;-69
2023/09/19 01:13:42;;;;;;;8.27;3.15;;;17.20;68.70;;;;;;5055910;28;20032;-69
2023/09/19 01:16:22;;;;;;;7.22;2.92;;;17.20;68.70;;;;;;5052193;28;20275;-69
2023/09/19 01:19:07;;;;;;;9.25;3.40;;;17.20;68.80;;;;;;5055581;28;20044;-68
2023/09/19 01:21:48;;;;;;;9.88;2.50;;;17.20;68.90;;;;;;5052055;28;20055;-69
2023/09/19 01:24:35;;;;;;;7.10;1.83;;;17.20;69.00;;;;;;5054500;28;20075;-69
2023/09/19 01:27:19;;;;;;;6.18;2.03;;;17.20;69.00;;;;;;5049969;28;20060;-70
2023/09/19 01:29:49;;;;;;;7.80;2.42;;;17.10;69.00;;;;;;5053705;28;20040;-69
2023/09/19 01:32:24;;;;;;;5.47;2.40;;;17.10;69.00;;;;;;5050634;28;20151;-70
2023/09/19 01:34:58;;;;;;;8.93;2.80;;;17.10;69.10;;;;;;5057734;28;20031;-69
2023/09/19 01:37:37;;;;;;;9.18;2.33;;;17.10;69.30;;;;;;5056161;28;20044;-70
2023/09/19 01:40:16;;;;;;;6.93;2.30;;;17.10;69.40;;;;;;5056725;28;20036;-68
2023/09/19 01:43:05;;;;;;;8.50;2.58;;;17.00;69.20;;;;;;5053803;28;20111;-71
2023/09/19 01:45:49;;;;;;;5.85;1.95;;;17.00;69.40;;;;;;5054756;28;20039;-70
2023/09/19 01:48:22;;;;;;;8.88;3.00;;;16.90;69.20;;;;;;5058958;28;20111;-68
2023/09/19 01:51:05;;;;;;;12.13;2.33;;;17.00;69.50;;;;;;5048237;28;20041;-69
2023/09/19 01:53:56;;;;;;;6.70;2.20;;;16.90;69.50;;;;;;5051729;28;20032;-69
2023/09/19 01:56:32;;;;;;;9.50;2.75;;;16.90;69.60;;;;;;5058190;28;20039;-69
2023/09/19 01:59:05;;;;;;;9.13;2.15;;;16.90;69.70;;;;;;5057700;28;20040;-68
2023/09/19 02:01:32;;;;;;;10.85;2.88;;;16.90;69.70;;;;;;5053995;28;20029;-69
2023/09/19 02:03:58;;;;;;;6.00;2.20;;;16.90;69.70;;;;;;5057275;28;20055;-68
2023/09/19 02:06:25;;;;;;;6.88;2.40;;;16.90;69.80;;;;;;5047386;28;20123;-69
2023/09/19 02:08:51;;;;;;;7.20;1.90;;;16.90;69.90;;;;;;5054556;28;20037;-68
2023/09/19 02:11:17;;;;;;;7.00;1.83;;;16.90;70.00;;;;;;5051899;28;20518;-67
2023/09/19 02:13:43;;;;;;;9.52;2.08;;;16.80;69.80;;;;;;5058099;28;20037;-68
2023/09/19 02:16:10;;;;;;;10.50;3.08;;;16.80;70.40;;;;;;5050706;28;20043;-68
2023/09/19 02:18:36;;;;;;;6.15;2.17;;;16.80;70.00;;;;;;5036381;28;20041;-69
2023/09/19 02:21:04;;;;;;;8.73;1.88;;;16.80;70.00;;;;;;5047163;28;20033;-68
2023/09/19 02:23:30;;;;;;;9.63;2.40;;;16.80;70.10;;;;;;5053040;28;20903;-68
2023/09/19 02:26:05;;;;;;;7.38;2.05;;;16.80;70.10;;;;;;5050152;28;20050;-68
2023/09/19 02:28:32;;;;;;;12.27;3.40;;;16.80;70.20;;;;;;5047453;28;20037;-67
2023/09/19 02:30:58;;;;;;;9.20;2.35;;;16.80;70.30;;;;;;5056443;28;20558;-69
2023/09/19 02:33:25;;;;;;;9.57;1.98;;;16.80;70.30;;;;;;5057567;28;20543;-71
2023/09/19 02:36:00;;;;;;;7.88;1.80;;;16.80;70.40;;;;;;5052205;28;20036;-68
2023/09/19 02:38:28;;;;;;;5.45;1.55;;;16.80;70.50;;;;;;5057067;28;20057;-68
2023/09/19 02:40:55;;;;;;;8.15;2.33;;;16.70;70.30;;;;;;5053724;28;20036;-69
2023/09/19 02:43:21;;;;;;;5.90;1.45;;;16.80;70.60;;;;;;5058027;28;20037;-68
2023/09/19 02:45:53;;;;;;;6.47;2.17;;;16.70;71.10;;;;;;5051771;28;20044;-68
2023/09/19 02:48:19;;;;;;;7.72;2.05;;;16.70;70.60;;;;;;5048560;28;20108;-70
2023/09/19 02:50:49;;;;;;;6.65;1.98;;;16.80;70.80;;;;;;5052746;28;20040;-68
2023/09/19 02:53:15;;;;;;;10.20;3.28;;;16.70;70.70;;;;;;5054944;28;20536;-70
2023/09/19 02:55:48;;;;;;;9.75;2.20;;;16.70;70.80;;;;;;5050174;28;20064;-70
2023/09/19 02:58:14;;;;;;;8.82;2.67;;;16.70;70.80;;;;;;5053117;28;20070;-70
2023/09/19 03:00:52;;;;;;;7.25;2.55;;;16.70;70.90;;;;;;5054540;28;20037;-70
2023/09/19 03:03:18;;;;;;;5.70;1.58;;;16.70;71.00;;;;;;5056811;28;20036;-70
2023/09/19 03:05:46;;;;;;;9.93;2.75;;;16.70;71.00;;;;;;5056522;28;20091;-68
2023/09/19 03:08:17;;;;;;;4.45;1.63;;;16.70;71.10;;;;;;5052421;28;20032;-68
2023/09/19 03:10:47;;;;;;;10.63;2.63;;;16.70;71.10;;;;;;5056468;28;20535;-69
2023/09/19 03:13:14;;;;;;;6.50;2.10;;;16.70;71.20;;;;;;5065420;28;20028;-68
2023/09/19 03:15:44;;;;;;;7.38;1.55;;;16.70;71.20;;;;;;5058177;28;20028;-68
2023/09/19 03:18:11;;;;;;;5.85;1.95;;;16.70;71.30;;;;;;5057827;28;20055;-71
2023/09/19 03:20:38;;;;;;;6.85;2.28;;;16.70;71.90;;;;;;5033912;28;20033;-68
2023/09/19 03:23:10;;;;;;;5.72;1.40;;;16.70;71.40;;;;;;5054403;28;20054;-69
2023/09/19 03:25:36;;;;;;;4.88;1.50;;;16.70;71.40;;;;;;5057303;28;20454;-71
2023/09/19 03:28:05;;;;;;;10.40;2.42;;;16.80;71.60;;;;;;5051227;28;20094;-68
2023/09/19 03:30:33;;;;;;;7.70;2.63;;;16.70;71.50;;;;;;5059079;28;20044;-68
2023/09/19 03:33:00;;;;;;;6.05;1.63;;;16.80;71.60;;;;;;5058300;28;20094;-70
2023/09/19 03:35:26;;;;;;;8.73;1.65;;;16.70;71.50;;;;;;5058516;28;20409;-70
2023/09/19 03:37:52;;;;;;;6.20;1.48;;;16.80;71.80;;;;;;5055499;28;20087;-69
2023/09/19 03:40:21;;;;;;;10.98;2.70;;;16.80;71.70;;;;;;5061537;28;20036;-70
2023/09/19 03:42:48;;;;;;;4.20;1.58;;;16.80;71.80;;;;;;5051791;28;20025;-70
2023/09/19 03:45:14;;;;;;;8.15;1.90;;;16.80;71.80;;;;;;5052898;28;20123;-71
2023/09/19 03:47:47;;;;;;;7.47;2.22;;;16.80;71.90;;;;;;5053736;28;20035;-69
2023/09/19 03:50:17;;;;;;;9.68;2.55;;;16.80;71.90;;;;;;5054454;28;20082;-70
2023/09/19 03:52:46;;;;;;;7.05;1.60;;;16.80;71.90;;;;;;5053932;28;20033;-70
2023/09/19 03:55:12;;;;;;;6.40;1.67;;;16.80;72.00;;;;;;5057950;28;20028;-70
2023/09/19 03:57:49;;;;;;;4.95;1.30;;;16.80;72.00;;;;;;5053649;28;20582;-71
2023/09/19 04:00:18;;;;;;;12.23;2.90;;;16.80;72.00;;;;;;5050738;28;20083;-71
2023/09/19 04:02:45;;;;;;;8.68;1.95;;;16.80;72.00;;;;;;5047644;28;20098;-69
2023/09/19 04:05:12;;;;;;;5.45;1.30;;;16.80;72.10;;;;;;5054359;28;20040;-68
2023/09/19 04:07:44;;;;;;;7.18;1.90;;;16.70;71.90;;;;;;5049459;28;20496;-70
2023/09/19 04:10:11;;;;;;;5.43;1.25;;;16.80;72.10;;;;;;5047462;28;20494;-69
2023/09/19 04:12:38;;;;;;;2.53;1.02;;;16.80;72.10;;;;;;5052264;28;20025;-70
2023/09/19 04:15:08;;;;;;;4.25;1.52;;;16.80;72.10;;;;;;5044469;28;20494;-68
2023/09/19 04:17:34;;;;;;;9.80;3.35;;;16.80;72.20;;;;;;5049462;28;20033;-69
2023/09/19 04:20:00;;;;;;;5.30;1.58;;;16.80;72.20;;;;;;5052814;28;20020;-70
2023/09/19 04:22:26;;;;;;;6.30;1.63;;;16.80;72.20;;;;;;5050090;28;20409;-70
2023/09/19 04:24:52;;;;;;;6.97;1.48;;;16.80;72.20;;;;;;5054395;28;20099;-69
2023/09/19 04:27:18;;;;;;;3.30;0.95;;;16.80;72.30;;;;;;5047167;28;20068;-70
2023/09/19 04:29:44;;;;;;;6.07;1.40;;;16.80;72.30;;;;;;5050185;28;20136;-69
2023/09/19 04:32:10;;;;;;;5.13;1.98;;;16.80;72.30;;;;;;5050963;28;20067;-69
2023/09/19 04:34:39;;;;;;;5.57;1.30;;;16.80;72.30;;;;;;5053484;28;20127;-69
2023/09/19 04:37:05;;;;;;;5.78;1.52;;;16.80;72.40;;;;;;5047673;28;20028;-69
2023/09/19 04:39:31;;;;;;;5.30;1.30;;;16.80;72.40;;;;;;5051603;28;20414;-70
2023/09/19 04:41:58;;;;;;;6.43;2.58;;;16.80;72.50;;;;;;5049423;28;20755;-70
2023/09/19 04:44:24;;;;;;;6.40;2.28;;;16.80;72.50;;;;;;5048742;28;20032;-70
2023/09/19 04:46:50;;;;;;;7.43;2.15;;;16.80;72.50;;;;;;5050790;28;20035;-71
2023/09/19 04:49:18;;;;;;;6.18;1.27;;;16.80;72.50;;;;;;5052256;28;20067;-69
2023/09/19 04:51:46;;;;;;;4.60;1.00;;;16.80;72.60;;;;;;5056390;28;20068;-69
2023/09/19 04:54:13;;;;;;;3.30;1.38;;;16.80;72.60;;;;;;5048597;28;20036;-68
2023/09/19 04:56:40;;;;;;;4.50;1.80;;;16.80;72.60;;;;;;5048641;28;20604;-69
2023/09/19 04:59:06;;;;;;;4.88;1.23;;;16.80;72.70;;;;;;5053401;28;20552;-69
2023/09/19 05:01:32;;;;;;;5.63;1.20;;;16.80;72.70;;;;;;5045407;28;20029;-69
2023/09/19 05:03:58;;;;;;;5.88;1.17;;;16.80;72.70;;;;;;5056974;28;20090;-70
2023/09/19 05:06:26;;;;;;;7.32;1.55;;;16.80;72.80;;;;;;5051744;28;20078;-69
2023/09/19 05:08:52;;;;;;;3.85;1.50;;;16.80;72.80;;;;;;5056626;28;20059;-69
2023/09/19 05:11:22;;;;;;;7.63;1.77;;;16.70;72.70;;;;;;5051629;28;20040;-69
2023/09/19 05:13:55;;;;;;;4.95;1.48;;;16.70;72.70;;;;;;5047148;28;20040;-69
2023/09/19 05:16:21;;;;;;;6.53;2.03;;;16.80;72.90;;;;;;5053964;28;20037;-70
2023/09/19 05:18:49;;;;;;;2.38;0.93;;;16.70;72.80;;;;;;5051726;28;20037;-72
2023/09/19 05:21:15;;;;;;;4.60;1.23;;;16.70;72.80;;;;;;5050201;28;20441;-70
2023/09/19 05:23:42;;;;;;;4.97;1.75;;;16.80;73.00;;;;;;5052004;28;20072;-71
2023/09/19 05:26:08;;;;;;;3.42;1.00;;;16.70;72.90;;;;;;5047865;28;20051;-70
2023/09/19 05:28:34;;;;;;;4.30;1.20;;;16.80;73.20;;;;;;5052915;28;20033;-70
2023/09/19 05:31:03;;;;;;;2.95;0.95;;;16.80;73.20;;;;;;5047592;28;20344;-69
2023/09/19 05:33:30;;;;;;;2.22;0.95;;;16.70;73.10;;;;;;5057353;28;20534;-70
2023/09/19 05:35:56;;;;;;;3.30;0.93;;;16.80;73.30;;;;;;5057112;28;20055;-70
2023/09/19 05:38:24;;;;;;;4.57;0.75;;;16.80;73.30;;;;;;5055964;28;20159;-69
2023/09/19 05:40:49;;;;;;;5.97;1.15;;;16.70;73.20;;;;;;5058712;28;20123;-68
2023/09/19 05:43:15;;;;;;;5.80;1.10;;;16.80;73.30;;;;;;5052520;28;20041;-69
2023/09/19 05:45:41;;;;;;;4.72;1.85;;;16.80;73.40;;;;;;5053358;28;20139;-68
2023/09/19 05:48:15;;;;;;;3.53;0.93;;;16.80;73.40;;;;;;5057491;28;20047;-69
2023/09/19 05:50:42;;;;;;;4.82;1.25;;;16.80;73.50;;;;;;5054986;28;20094;-69
2023/09/19 05:53:11;;;;;;;6.10;1.30;;;16.80;73.50;;;;;;5042804;28;20035;-68
2023/09/19 05:55:37;;;;;;;5.05;1.77;;;16.90;73.80;;;;;;5048128;28;20036;-69
2023/09/19 05:58:04;;;;;;;6.53;1.60;;;16.80;73.70;;;;;;5052832;28;20182;-69
2023/09/19 06:00:31;;;;;;;5.15;1.70;;;16.90;73.90;;;;;;5052068;28;20408;-69
2023/09/19 06:02:59;;;;;;;8.32;2.60;;;16.80;73.90;;;;;;5060708;28;20071;-68
2023/09/19 06:05:32;;;;;;;8.95;2.55;;;16.80;73.90;;;;;;5052175;28;20537;-69
2023/09/19 06:08:00;;;;;;;6.95;1.80;;;16.90;74.20;;;;;;5052326;28;20044;-68
2023/09/19 06:10:27;;;;;;;5.68;2.10;;;16.80;74.40;;;;;;5058767;28;20503;-67
2023/09/19 06:12:55;;;;;;;7.88;2.28;;;16.90;75.00;;;;;;5053807;28;20040;-68
2023/09/19 06:15:24;;;;;;;5.85;1.95;;;17.00;75.50;;;;;;5058262;28;20540;-67
2023/09/19 06:17:55;;;;;;;6.07;1.88;;;17.10;75.90;;;;;;5054508;28;20615;-68
2023/09/19 06:20:23;;;;;;;8.48;1.73;;;17.10;76.00;;;;;;5047460;28;20405;-68
2023/09/19 06:22:49;;;;;;;8.20;2.10;;;17.20;76.20;;;;;;5057290;28;20390;-69
2023/09/19 06:25:19;;;;;;;5.65;2.13;;;17.20;76.30;;;;;;5051272;28;20678;-68
2023/09/19 06:27:52;;;;;;;7.50;2.30;;;17.30;76.50;;;;;;5057436;28;20124;-68
2023/09/19 06:30:18;;;;;;;6.47;2.20;;;17.30;76.40;;;;;;5052083;28;20051;-68
2023/09/19 06:32:47;;;;;;;10.05;3.50;;;17.40;76.40;;;;;;5056183;28;20508;-67
2023/09/19 06:35:14;;;;;;;8.98;2.80;;;17.40;76.40;;;;;;5061632;28;20093;-68
2023/09/19 06:37:41;;;;;;;5.35;1.98;;;17.30;76.70;;;;;;5056600;28;20052;-68
2023/09/19 06:40:14;;;;;;;7.57;3.03;;;17.40;76.30;;;;;;5058922;28;20256;-67
2023/09/19 06:43:06;;;;;;;10.82;2.50;;;17.30;76.00;;;;;;5055191;28;20256;-68
2023/09/19 06:45:32;;;;;;;9.05;3.33;;;17.30;76.10;;;;;;5050213;28;20110;-67
2023/09/19 06:47:59;;;;;;;8.25;2.53;;;17.40;76.10;;;;;;5054135;28;20085;-67
2023/09/19 06:50:26;;;;;;;5.70;2.25;;;17.30;76.00;;;;;;5052437;28;20089;-68
2023/09/19 06:52:54;;;;;;;7.13;2.92;;;17.30;76.00;;;;;;5054307;28;20115;-68
2023/09/19 06:55:24;;;;;;;7.47;2.20;;;17.30;76.00;;;;;;5052064;28;20040;-67
2023/09/19 06:57:51;;;;;;;7.45;2.70;;;17.30;75.90;;;;;;5052948;28;20068;-66
2023/09/19 07:00:21;;;;;;;7.25;2.40;;;17.30;75.90;;;;;;5052416;28;20146;-67
2023/09/19 07:03:10;;;;;;;8.27;2.47;;;17.20;75.80;;;;;;5056165;28;20198;-68
2023/09/19 07:05:37;;;;;;;8.90;2.90;;;17.20;76.40;;;;;;5052302;28;20436;-67
2023/09/19 07:08:03;;;;;;;7.50;2.50;;;17.20;75.80;;;;;;5052920;28;20430;-68
2023/09/19 07:10:30;;;;;;;9.35;3.53;;;17.30;76.10;;;;;;5055273;28;20036;-67
2023/09/19 07:13:01;;;;;;;8.23;2.97;;;17.20;75.90;;;;;;5056025;28;20082;-68
2023/09/19 07:15:28;;;;;;;7.60;2.72;;;17.30;76.10;;;;;;5046142;28;20040;-67
2023/09/19 07:17:57;;;;;;;10.85;3.40;;;17.30;76.00;;;;;;5056358;28;20059;-67
2023/09/19 07:20:29;;;;;;;12.60;3.20;;;17.30;76.00;;;;;;5051730;28;20124;-68
2023/09/19 07:22:55;;;;;;;10.57;3.20;;;17.30;75.90;;;;;;5056446;28;20074;-68
2023/09/19 07:25:21;;;;;;;9.07;3.22;;;17.30;75.90;;;;;;5049729;28;20048;-68
2023/09/19 07:27:47;;;;;;;7.32;2.92;;;17.40;76.00;;;;;;5057175;28;20143;-67
2023/09/19 07:30:16;;;;;;;8.15;4.03;;;17.40;76.00;;;;;;5052777;28;20028;-68
2023/09/19 07:32:42;;;;;;;8.65;3.42;;;17.40;76.00;;;;;;5054295;28;20121;-68
2023/09/19 07:35:08;;;;;;;8.15;2.53;;;17.40;75.90;;;;;;5054886;28;20442;-69
2023/09/19 07:37:36;;;;;;;9.05;2.95;;;17.50;76.10;;;;;;5053515;28;20207;-69
2023/09/19 07:40:06;;;;;;;7.75;2.40;;;17.40;76.20;;;;;;5051256;28;20052;-69
2023/09/19 07:42:35;;;;;;;7.03;2.45;;;17.50;76.50;;;;;;5051481;28;20037;-68
2023/09/19 07:45:01;;;;;;;7.43;3.05;;;17.60;76.70;;;;;;5043184;28;20064;-70
2023/09/19 07:47:30;;;;;;;6.43;3.42;;;17.70;76.90;;;;;;5066158;28;20040;-69
2023/09/19 07:50:02;;;;;;;10.35;3.22;;;17.70;76.70;;;;;;5053000;28;20460;-69
2023/09/19 07:52:29;;;;;;;8.35;2.65;;;17.80;76.70;;;;;;5053992;28;20029;-69
2023/09/19 07:54:57;;;;;;;8.02;3.15;;;17.90;76.80;;;;;;5056904;28;20033;-68
2023/09/19 07:57:23;;;;;;;7.43;3.08;;;17.90;76.80;;;;;;5055978;28;20033;-68
2023/09/19 07:59:49;;;;;;;12.43;3.85;;;18.00;76.90;;;;;;5047250;28;20051;-69
2023/09/19 08:02:18;;;;;;;8.20;3.08;;;18.00;76.80;;;;;;5060927;28;20535;-69
2023/09/19 08:04:48;;;;;;;9.85;2.75;;;18.10;76.80;;;;;;5058475;28;20430;-69
2023/09/19 08:07:15;;;;;;;14.60;5.55;;;18.10;76.70;;;;;;5056911;28;20484;-69
2023/09/19 08:09:41;;;;;;;6.43;2.53;;;18.20;76.70;;;;;;5058240;28;20543;-69
2023/09/19 08:12:10;;;;;;;11.40;4.63;;;18.30;76.70;;;;;;5060357;28;20044;-69
2023/09/19 08:14:37;;;;;;;13.00;3.90;;;18.30;77.10;;;;;;5051217;28;21411;-69
2023/09/19 08:17:07;;;;;;;9.10;3.40;;;18.30;76.40;;;;;;5059113;28;20385;-69
2023/09/19 08:19:34;;;;;;;9.85;2.80;;;18.40;76.50;;;;;;5054100;28;20040;-69
2023/09/19 08:22:00;;;;;;;9.48;3.20;;;18.50;76.40;;;;;;5050420;28;20040;-68
2023/09/19 08:24:28;;;;;;;8.45;3.30;;;18.50;76.30;;;;;;5056219;28;20483;-69
2023/09/19 08:26:57;;;;;;;8.15;3.00;;;18.50;76.20;;;;;;5055359;28;20366;-68
2023/09/19 08:29:27;;;;;;;9.63;3.10;;;18.60;76.40;;;;;;5054907;28;20419;-68
2023/09/19 08:31:57;;;;;;;9.73;3.85;;;18.60;76.40;;;;;;5051927;28;20108;-68
2023/09/19 08:34:27;;;;;;;10.23;2.75;;;18.70;76.70;;;;;;5051833;28;20035;-69
2023/09/19 08:36:57;;;;;;;7.53;2.83;;;18.70;76.50;;;;;;5048253;28;20041;-69
2023/09/19 08:39:24;;;;;;;4.95;2.50;;;18.70;76.40;;;;;;5059608;28;20085;-68
2023/09/19 08:41:56;;;;;;;9.18;2.88;;;18.80;76.50;;;;;;5050692;28;20068;-69
2023/09/19 08:44:27;;;;;;;9.75;3.60;;;18.80;76.40;;;;;;5047799;28;20786;-68
2023/09/19 08:46:58;;;;;;;27.30;4.25;;;18.80;76.30;;;;;;5051919;28;20491;-68
2023/09/19 08:49:41;;;;;;;7.45;3.05;;;18.80;76.30;;;;;;5051431;28;20181;-68
2023/09/19 08:52:25;;;;;;;6.47;2.70;;;18.80;76.20;;;;;;5054621;28;20142;-68
2023/09/19 08:54:53;;;;;;;;;;;18.80;76.20;;;;;;5055794;28;20035;-68
2023/09/19 08:57:22;;;;;;;6.82;2.92;;;18.90;76.30;;;;;;5049070;28;19973;-69
2023/09/19 08:59:51;;;;;;;8.48;3.33;;;18.90;76.00;;;;;;5046424;28;20612;-68
2023/09/19 09:02:19;;;;;;;10.05;3.03;;;19.10;76.70;;;;;;5048486;28;20041;-68
2023/09/19 09:04:47;;;;;;;7.60;3.20;;;19.10;75.90;;;;;;5053144;28;20195;-69
2023/09/19 09:07:14;;;;;;;8.15;3.00;;;19.20;75.90;;;;;;5059809;28;20036;-68
2023/09/19 09:09:44;;;;;;;8.27;2.75;;;19.20;75.80;;;;;;5052805;28;20033;-68
2023/09/19 09:12:13;;;;;;;8.43;2.50;;;19.30;75.80;;;;;;5053666;28;20041;-68
2023/09/19 09:14:49;;;;;;;4.72;2.40;;;19.30;75.70;;;;;;5055624;28;20051;-68
2023/09/19 09:17:20;;;;;;;8.52;3.70;;;19.40;75.60;;;;;;5050031;28;20111;-68
2023/09/19 09:19:49;;;;;;;8.02;2.30;;;19.50;75.70;;;;;;5055369;28;20032;-68
2023/09/19 09:22:18;;;;;;;6.53;2.63;;;19.50;75.50;;;;;;5057684;28;20029;-68
2023/09/19 09:25:04;;;;;;;7.93;3.15;;;19.60;75.50;;;;;;5054052;28;20072;-69
2023/09/19 09:27:32;;;;;;;6.80;2.50;;;19.70;75.40;;;;;;5068926;28;20040;-68
2023/09/19 09:29:58;;;;;;;6.97;4.07;;;19.90;75.40;;;;;;5058669;28;20029;-68
2023/09/19 09:32:29;;;;;;;10.98;3.70;;;19.90;75.00;;;;;;5057137;28;20037;-68
2023/09/19 09:34:57;;;;;;;6.95;2.97;;;20.00;74.90;;;;;;5064496;28;20036;-68
2023/09/19 09:37:26;;;;;;;8.48;2.80;;;20.10;75.00;;;;;;5059578;28;20059;-69
2023/09/19 09:39:58;;;;;;;7.35;2.75;;;20.20;75.00;;;;;;5062457;28;20085;-69
2023/09/19 09:42:32;;;;;;;8.75;2.42;;;20.40;75.00;;;;;;5062405;28;20124;-68
2023/09/19 09:45:48;;;;;;;5.65;2.60;;;20.50;74.60;;;;;;5049072;28;20044;-69
2023/09/19 09:48:15;;;;;;;7.15;2.67;;;20.70;74.50;;;;;;5059035;28;20040;-68
2023/09/19 09:53:31;;;;;;;4.00;2.10;;;20.80;74.10;;;;;;5052363;28;20701;-69
2023/09/19 09:56:07;;;;;;;6.10;2.40;;;20.80;73.90;;;;;;5050154;28;20047;-68
2023/09/19 09:58:35;;;;;;;4.40;2.20;;;20.80;73.90;;;;;;5055356;28;20047;-69
2023/09/19 10:01:14;;;;;;;4.45;2.28;;;20.80;73.90;;;;;;5055521;28;20036;-69
2023/09/19 10:03:44;;;;;;;6.40;2.03;;;20.80;73.90;;;;;;5059210;28;20092;-68
2023/09/19 10:09:05;;;;;;;7.00;2.40;;;20.70;73.80;;;;;;5057966;28;20051;-68
2023/09/19 10:11:31;;;;;;;4.72;1.98;;;20.70;73.80;;;;;;5057871;28;20043;-69
2023/09/19 10:14:06;;;;;;;4.95;1.92;;;20.80;74.00;;;;;;5058678;28;20043;-68
2023/09/19 10:16:34;;;;;;;3.85;1.63;;;20.80;73.90;;;;;;5058246;28;20036;-68
2023/09/19 10:19:07;;;;;;;4.15;1.48;;;20.80;73.80;;;;;;5063066;28;20028;-68
2023/09/19 10:21:36;;;;;;;2.95;1.77;;;20.80;73.70;;;;;;5059964;28;20054;-69
2023/09/19 10:24:04;;;;;;;4.40;1.98;;;20.90;73.70;;;;;;5055483;28;20028;-68
2023/09/19 10:26:36;;;;;;;5.13;1.67;;;20.90;73.90;;;;;;5052415;28;20041;-68
2023/09/19 10:29:09;;;;;;;4.35;1.73;;;20.90;73.60;;;;;;5055179;28;20035;-68
2023/09/19 10:31:40;;;;;;;3.83;1.45;;;20.90;73.60;;;;;;5058067;28;20044;-68
2023/09/19 10:34:09;;;;;;;4.57;1.30;;;20.90;73.60;;;;;;5062111;28;20028;-69
2023/09/19 10:36:37;;;;;;;3.42;1.90;;;21.00;74.20;;;;;;5052219;28;20123;-68
2023/09/19 10:39:06;;;;;;;3.50;1.13;;;21.00;73.70;;;;;;5066900;28;20044;-68
2023/09/19 10:41:39;;;;;;;2.25;1.27;;;21.00;73.60;;;;;;5053667;28;20340;-68
2023/09/19 10:44:05;;;;;;;3.17;1.42;;;21.00;73.50;;;;;;5056782;28;20509;-68
2023/09/19 10:46:36;;;;;;;3.85;1.40;;;21.10;73.70;;;;;;5054510;28;20056;-68
2023/09/19 10:49:03;;;;;;;3.25;1.35;;;21.10;73.60;;;;;;5057899;28;20036;-69
2023/09/19 10:51:38;;;;;;;2.88;1.20;;;21.10;73.60;;;;;;5063974;28;20043;-69
2023/09/19 10:54:15;;;;;;;3.20;1.20;;;21.10;73.70;;;;;;5051470;28;20024;-68
2023/09/19 10:56:51;;;;;;;2.33;0.80;;;21.10;73.50;;;;;;5052010;28;20480;-68
2023/09/19 10:59:18;;;;;;;2.45;1.20;;;21.20;73.60;;;;;;5052338;28;20458;-69
2023/09/19 11:01:57;;;;;;;3.25;1.30;;;21.30;73.70;;;;;;5054543;28;20123;-69
2023/09/19 11:04:31;;;;;;;2.65;1.45;;;21.30;73.40;;;;;;5059675;28;20033;-68
2023/09/19 11:07:12;;;;;;;2.13;1.13;;;21.30;73.40;;;;;;5055212;28;20051;-68
2023/09/19 11:09:57;;;;;;;1.83;0.90;;;21.30;73.30;;;;;;5056934;28;20036;-68
2023/09/19 11:12:30;;;;;;;1.60;0.90;;;21.30;73.20;;;;;;5056520;28;20522;-69
2023/09/19 11:14:58;;;;;;;1.45;0.95;;;21.30;73.30;;;;;;5056146;28;20035;-68
2023/09/19 11:17:32;;;;;;;1.25;0.90;;;21.30;73.30;;;;;;5052022;28;20397;-68
2023/09/19 11:22:52;;;;;;;1.52;0.82;;;21.30;73.50;;;;;;5055835;28;20040;-69
2023/09/19 11:25:30;;;;;;;3.00;1.55;;;21.20;73.40;;;;;;5055641;28;20064;-68
2023/09/19 11:28:05;;;;;;;8.40;2.03;;;21.20;73.50;;;;;;5059077;28;20087;-68
2023/09/19 11:30:33;;;;;;;9.32;2.10;;;21.20;73.60;;;;;;5057598;28;20099;-68
2023/09/19 11:33:33;;;;;;;6.22;2.10;;;21.20;73.60;;;;;;5051375;28;20420;-68
2023/09/19 11:36:06;;;;;;;10.35;2.28;;;21.20;73.60;;;;;;5052275;28;20522;-68
2023/09/19 11:41:27;;;;;;;12.63;3.55;;;21.20;73.60;;;;;;5058625;28;20052;-69
2023/09/19 11:44:00;;;;;;;21.08;13.63;;;21.30;73.70;;;;;;5055727;28;20036;-69
2023/09/19 11:46:52;;;;;;;10.60;6.85;;;21.20;73.60;;;;;;5049880;28;20078;-68
2023/09/19 11:49:26;;;;;;;19.05;5.53;;;21.30;73.90;;;;;;5044015;28;20045;-69
2023/09/19 11:51:52;;;;;;;10.48;5.18;;;21.30;73.90;;;;;;5051275;28;20131;-69
2023/09/19 11:54:21;;;;;;;9.52;3.67;;;21.20;73.90;;;;;;5049067;28;20048;-69
2023/09/19 11:56:50;;;;;;;15.20;5.20;;;21.20;74.00;;;;;;5052298;28;20044;-69
2023/09/19 11:59:33;;;;;;;5.82;3.03;;;21.20;74.10;;;;;;5053000;28;20035;-68
2023/09/19 12:02:05;;;;;;;8.05;3.72;;;21.20;74.20;;;;;;5054530;28;20044;-69
2023/09/19 12:04:38;;;;;;;7.78;2.90;;;21.20;74.10;;;;;;5060600;28;20344;-68
2023/09/19 12:07:15;;;;;;;8.07;3.13;;;21.30;74.20;;;;;;5055315;28;20387;-68
2023/09/19 12:09:43;;;;;;;6.45;2.22;;;21.30;74.10;;;;;;5054874;28;21085;-68
2023/09/19 12:12:28;;;;;;;8.45;2.70;;;21.30;74.00;;;;;;5051774;28;20040;-68
2023/09/19 12:14:57;;;;;;;5.70;2.40;;;21.30;74.00;;;;;;5056412;28;20339;-68
2023/09/19 12:17:24;;;;;;;8.93;2.70;;;21.30;74.00;;;;;;5048265;28;20028;-68
2023/09/19 12:19:51;;;;;;;8.73;2.10;;;21.30;74.10;;;;;;5055944;28;20044;-68
2023/09/19 12:22:19;;;;;;;7.97;2.78;;;21.30;74.10;;;;;;5051115;28;20032;-68
2023/09/19 12:24:45;;;;;;;5.65;1.80;;;21.30;74.20;;;;;;5050337;28;20036;-68
2023/09/19 12:27:11;;;;;;;4.65;2.25;;;21.30;74.10;;;;;;5055100;28;20147;-68
2023/09/19 12:29:49;;;;;;;7.03;2.95;;;21.40;74.30;;;;;;5050618;28;20491;-68
2023/09/19 12:32:20;;;;;;;4.40;1.75;;;21.40;74.30;;;;;;5050925;28;20057;-69
2023/09/19 12:34:54;;;;;;;3.80;1.65;;;21.50;74.50;;;;;;5058631;28;20140;-69
2023/09/19 12:37:21;;;;;;;2.53;1.52;;;21.60;74.30;;;;;;5053746;28;20487;-68
2023/09/19 12:39:50;;;;;;;4.70;2.03;;;21.60;74.10;;;;;;5056738;28;20123;-68
2023/09/19 12:42:28;;;;;;;4.80;2.05;;;21.70;74.10;;;;;;5051532;28;20036;-68
2023/09/19 12:45:00;;;;;;;4.47;1.55;;;21.70;74.10;;;;;;5053605;28;20042;-68
2023/09/19 12:47:30;;;;;;;4.80;1.83;;;21.70;74.10;;;;;;5057800;28;20043;-69
2023/09/19 12:50:18;;;;;;;3.92;1.50;;;21.70;74.00;;;;;;5052831;28;20024;-69
2023/09/19 12:52:49;;;;;;;4.40;1.20;;;21.80;74.20;;;;;;5053824;28;20513;-69
2023/09/19 12:55:32;;;;;;;2.88;1.40;;;21.80;74.10;;;;;;5053533;28;20064;-68
2023/09/19 12:58:07;;;;;;;3.22;1.55;;;21.80;74.00;;;;;;5055698;28;20119;-68
2023/09/19 13:00:38;;;;;;;2.72;1.10;;;21.90;74.10;;;;;;5050237;28;20032;-68
2023/09/19 13:03:40;;;;;;;5.95;1.98;;;22.00;74.10;;;;;;5055215;28;20040;-68
2023/09/19 13:06:07;;;;;;;3.33;1.30;;;22.00;73.90;;;;;;4996567;28;20069;-68
2023/09/19 13:08:38;;;;;;;3.08;1.38;;;22.10;74.00;;;;;;5041198;28;20040;-69
2023/09/19 13:11:14;;;;;;;4.20;1.35;;;22.10;74.30;;;;;;5063313;28;20213;-68
2023/09/19 13:13:41;;;;;;;4.75;1.50;;;22.20;73.70;;;;;;5051266;28;20762;-68